sensor_id;sensor_type;location;lat;lon;timestamp;pressure;altitude;pressure_sealevel;temperature;humidity
6144;BME280;3103;49.492;8.474;2022-12-24T00:00:59;99924.84;;;12.91;75.81
6144;BME280;3103;49.492;8.474;2022-12-24T00:03:26;99943.97;;;12.89;75.50
6144;BME280;3103;49.492;8.474;2022-12-24T00:05:53;99943.94;;;12.69;77.28
6144;BME280;3103;49.492;8.474;2022-12-24T00:08:20;99943.34;;;12.57;77.20
6144;BME280;3103;49.492;8.474;2022-12-24T00:10:49;99945.56;;;12.80;75.86
6144;BME280;3103;49.492;8.474;2022-12-24T00:13:17;99953.91;;;12.73;75.45
6144;BME280;3103;49.492;8.474;2022-12-24T00:15:43;99957.16;;;12.70;75.11
6144;BME280;3103;49.492;8.474;2022-12-24T00:18:10;99965.25;;;12.81;75.06
6144;BME280;3103;49.492;8.474;2022-12-24T00:20:37;99970.94;;;12.89;73.73
6144;BME280;3103;49.492;8.474;2022-12-24T00:23:04;99973.59;;;12.74;73.37
6144;BME280;3103;49.492;8.474;2022-12-24T00:25:31;99977.34;;;12.68;74.27
6144;BME280;3103;49.492;8.474;2022-12-24T00:27:57;99976.28;;;12.69;73.72
6144;BME280;3103;49.492;8.474;2022-12-24T00:30:24;99988.63;;;12.65;73.12
6144;BME280;3103;49.492;8.474;2022-12-24T00:32:51;99985.41;;;12.63;73.13
6144;BME280;3103;49.492;8.474;2022-12-24T00:35:18;99989.38;;;12.50;73.96
6144;BME280;3103;49.492;8.474;2022-12-24T00:37:47;99992.97;;;12.66;72.02
6144;BME280;3103;49.492;8.474;2022-12-24T00:40:15;99987.84;;;12.64;72.03
6144;BME280;3103;49.492;8.474;2022-12-24T00:42:43;100003.19;;;12.59;72.22
6144;BME280;3103;49.492;8.474;2022-12-24T00:45:13;100002.59;;;12.46;72.41
6144;BME280;3103;49.492;8.474;2022-12-24T00:47:40;100008.59;;;12.64;71.01
6144;BME280;3103;49.492;8.474;2022-12-24T00:50:07;100003.19;;;12.64;70.54
6144;BME280;3103;49.492;8.474;2022-12-24T00:52:34;100017.94;;;12.46;70.18
6144;BME280;3103;49.492;8.474;2022-12-24T00:55:01;100014.78;;;12.59;69.22
6144;BME280;3103;49.492;8.474;2022-12-24T00:57:29;100020.97;;;12.65;68.71
6144;BME280;3103;49.492;8.474;2022-12-24T00:59:55;100007.69;;;12.43;69.67
6144;BME280;3103;49.492;8.474;2022-12-24T01:02:22;100017.41;;;12.44;69.34
6144;BME280;3103;49.492;8.474;2022-12-24T01:04:49;100021.47;;;12.52;69.24
6144;BME280;3103;49.492;8.474;2022-12-24T01:07:40;100021.47;;;12.52;69.71
6144;BME280;3103;49.492;8.474;2022-12-24T01:10:08;100027.09;;;12.45;70.21
6144;BME280;3103;49.492;8.474;2022-12-24T01:12:35;100018.72;;;12.41;70.35
6144;BME280;3103;49.492;8.474;2022-12-24T01:15:03;100014.06;;;12.27;71.41
6144;BME280;3103;49.492;8.474;2022-12-24T01:17:32;100014.00;;;12.16;72.01
6144;BME280;3103;49.492;8.474;2022-12-24T01:19:59;100022.41;;;12.25;71.07
6144;BME280;3103;49.492;8.474;2022-12-24T01:22:25;100028.25;;;12.12;71.14
6144;BME280;3103;49.492;8.474;2022-12-24T01:24:52;100029.81;;;12.50;70.56
6144;BME280;3103;49.492;8.474;2022-12-24T01:27:19;100027.88;;;12.40;70.47
6144;BME280;3103;49.492;8.474;2022-12-24T01:29:46;100038.34;;;12.37;70.58
6144;BME280;3103;49.492;8.474;2022-12-24T01:32:12;100034.03;;;12.36;70.98
6144;BME280;3103;49.492;8.474;2022-12-24T01:34:39;100032.59;;;12.23;71.57
6144;BME280;3103;49.492;8.474;2022-12-24T01:37:06;100056.53;;;12.14;72.14
6144;BME280;3103;49.492;8.474;2022-12-24T01:39:33;100053.66;;;12.26;71.32
6144;BME280;3103;49.492;8.474;2022-12-24T01:42:00;100059.53;;;12.18;71.78
6144;BME280;3103;49.492;8.474;2022-12-24T01:44:48;100073.00;;;12.18;71.30
6144;BME280;3103;49.492;8.474;2022-12-24T01:47:20;100086.78;;;12.27;71.24
6144;BME280;3103;49.492;8.474;2022-12-24T01:49:53;100090.88;;;12.34;70.64
6144;BME280;3103;49.492;8.474;2022-12-24T01:52:27;100080.25;;;12.17;70.30
6144;BME280;3103;49.492;8.474;2022-12-24T01:55:02;100092.47;;;12.30;70.57
6144;BME280;3103;49.492;8.474;2022-12-24T01:57:52;100100.22;;;12.22;70.48
6144;BME280;3103;49.492;8.474;2022-12-24T02:00:20;100093.72;;;12.17;69.98
6144;BME280;3103;49.492;8.474;2022-12-24T02:02:49;100103.44;;;12.18;70.47
6144;BME280;3103;49.492;8.474;2022-12-24T02:05:23;100110.59;;;12.08;70.83
6144;BME280;3103;49.492;8.474;2022-12-24T02:07:51;100117.13;;;12.12;70.70
6144;BME280;3103;49.492;8.474;2022-12-24T02:10:18;100114.50;;;12.22;70.56
6144;BME280;3103;49.492;8.474;2022-12-24T02:12:45;100120.91;;;12.16;70.44
6144;BME280;3103;49.492;8.474;2022-12-24T02:15:14;100116.06;;;12.13;71.38
6144;BME280;3103;49.492;8.474;2022-12-24T02:17:47;100122.81;;;12.21;71.02
6144;BME280;3103;49.492;8.474;2022-12-24T02:27:07;100102.53;;;12.08;71.59
6144;BME280;3103;49.492;8.474;2022-12-24T02:30:01;100106.84;;;12.09;71.58
6144;BME280;3103;49.492;8.474;2022-12-24T02:35:51;100111.38;;;12.03;71.25
6144;BME280;3103;49.492;8.474;2022-12-24T02:38:29;100121.63;;;12.06;71.64
6144;BME280;3103;49.492;8.474;2022-12-24T02:41:02;100131.59;;;12.06;71.73
6144;BME280;3103;49.492;8.474;2022-12-24T02:43:34;100130.13;;;11.93;71.60
6144;BME280;3103;49.492;8.474;2022-12-24T02:46:06;100133.97;;;11.97;71.89
6144;BME280;3103;49.492;8.474;2022-12-24T02:48:36;100124.75;;;11.93;72.20
6144;BME280;3103;49.492;8.474;2022-12-24T02:51:06;100118.00;;;11.91;71.82
6144;BME280;3103;49.492;8.474;2022-12-24T02:53:35;100116.41;;;11.95;71.04
6144;BME280;3103;49.492;8.474;2022-12-24T02:56:20;100114.25;;;11.92;72.09
6144;BME280;3103;49.492;8.474;2022-12-24T03:01:59;100130.69;;;11.95;71.77
6144;BME280;3103;49.492;8.474;2022-12-24T03:07:35;100131.50;;;11.96;71.91
6144;BME280;3103;49.492;8.474;2022-12-24T03:13:03;100139.03;;;11.94;72.21
6144;BME280;3103;49.492;8.474;2022-12-24T03:15:32;100159.56;;;12.00;72.63
6144;BME280;3103;49.492;8.474;2022-12-24T03:18:01;100148.66;;;11.84;73.15
6144;BME280;3103;49.492;8.474;2022-12-24T03:20:34;100153.22;;;11.84;74.40
6144;BME280;3103;49.492;8.474;2022-12-24T03:23:02;100143.53;;;11.83;74.33
6144;BME280;3103;49.492;8.474;2022-12-24T03:25:31;100146.09;;;11.78;75.68
6144;BME280;3103;49.492;8.474;2022-12-24T03:28:01;100134.94;;;11.86;75.23
6144;BME280;3103;49.492;8.474;2022-12-24T03:30:29;100149.94;;;11.82;75.79
6144;BME280;3103;49.492;8.474;2022-12-24T03:32:56;100157.94;;;11.77;75.60
6144;BME280;3103;49.492;8.474;2022-12-24T03:35:23;100155.31;;;11.82;76.44
6144;BME280;3103;49.492;8.474;2022-12-24T03:37:49;100154.50;;;11.81;75.82
6144;BME280;3103;49.492;8.474;2022-12-24T03:40:16;100153.97;;;11.79;75.96
6144;BME280;3103;49.492;8.474;2022-12-24T03:42:43;100156.47;;;11.86;76.00
6144;BME280;3103;49.492;8.474;2022-12-24T03:45:10;100148.00;;;11.77;74.97
6144;BME280;3103;49.492;8.474;2022-12-24T03:47:37;100157.31;;;11.92;74.95
6144;BME280;3103;49.492;8.474;2022-12-24T03:50:04;100139.38;;;12.02;74.95
6144;BME280;3103;49.492;8.474;2022-12-24T03:52:31;100144.16;;;11.95;75.18
6144;BME280;3103;49.492;8.474;2022-12-24T03:54:58;100148.69;;;11.89;75.19
6144;BME280;3103;49.492;8.474;2022-12-24T03:57:25;100169.66;;;11.87;75.54
6144;BME280;3103;49.492;8.474;2022-12-24T03:59:51;100167.75;;;11.83;75.56
6144;BME280;3103;49.492;8.474;2022-12-24T04:02:18;100168.13;;;11.70;76.05
6144;BME280;3103;49.492;8.474;2022-12-24T04:04:45;100149.34;;;12.02;75.09
6144;BME280;3103;49.492;8.474;2022-12-24T04:07:12;100158.41;;;11.96;75.16
6144;BME280;3103;49.492;8.474;2022-12-24T04:09:42;100151.22;;;12.01;75.08
6144;BME280;3103;49.492;8.474;2022-12-24T04:12:09;100167.81;;;11.93;75.45
6144;BME280;3103;49.492;8.474;2022-12-24T04:14:36;100157.66;;;12.00;75.35
6144;BME280;3103;49.492;8.474;2022-12-24T04:17:04;100152.03;;;12.02;75.07
6144;BME280;3103;49.492;8.474;2022-12-24T04:19:31;100156.59;;;12.01;75.38
6144;BME280;3103;49.492;8.474;2022-12-24T04:21:58;100168.69;;;11.99;75.48
6144;BME280;3103;49.492;8.474;2022-12-24T04:24:24;100172.66;;;11.91;75.39
6144;BME280;3103;49.492;8.474;2022-12-24T04:26:51;100171.94;;;12.01;75.75
6144;BME280;3103;49.492;8.474;2022-12-24T04:29:18;100175.34;;;11.91;75.92
6144;BME280;3103;49.492;8.474;2022-12-24T04:31:44;100188.53;;;11.93;76.13
6144;BME280;3103;49.492;8.474;2022-12-24T04:34:11;100199.13;;;11.99;76.35
6144;BME280;3103;49.492;8.474;2022-12-24T04:36:38;100195.63;;;11.99;76.69
6144;BME280;3103;49.492;8.474;2022-12-24T04:39:04;100189.63;;;11.92;76.33
6144;BME280;3103;49.492;8.474;2022-12-24T04:41:31;100198.75;;;11.91;77.12
6144;BME280;3103;49.492;8.474;2022-12-24T04:43:58;100200.03;;;11.83;77.63
6144;BME280;3103;49.492;8.474;2022-12-24T04:46:27;100199.28;;;11.87;78.74
6144;BME280;3103;49.492;8.474;2022-12-24T04:48:56;100194.44;;;11.89;78.56
6144;BME280;3103;49.492;8.474;2022-12-24T04:51:24;100195.47;;;11.83;79.31
6144;BME280;3103;49.492;8.474;2022-12-24T04:53:51;100199.94;;;12.00;78.42
6144;BME280;3103;49.492;8.474;2022-12-24T04:56:20;100202.81;;;11.93;79.12
6144;BME280;3103;49.492;8.474;2022-12-24T04:58:48;100193.94;;;11.93;79.66
6144;BME280;3103;49.492;8.474;2022-12-24T05:01:21;100187.69;;;11.87;80.32
6144;BME280;3103;49.492;8.474;2022-12-24T05:03:49;100186.13;;;11.91;80.92
6144;BME280;3103;49.492;8.474;2022-12-24T05:06:18;100189.63;;;11.92;81.58
6144;BME280;3103;49.492;8.474;2022-12-24T05:08:45;100179.88;;;11.85;81.66
6144;BME280;3103;49.492;8.474;2022-12-24T05:11:12;100195.25;;;11.68;82.68
6144;BME280;3103;49.492;8.474;2022-12-24T05:13:43;100194.00;;;11.54;83.69
6144;BME280;3103;49.492;8.474;2022-12-24T05:16:15;100187.81;;;11.53;84.51
6144;BME280;3103;49.492;8.474;2022-12-24T05:18:42;100198.72;;;11.64;83.48
6144;BME280;3103;49.492;8.474;2022-12-24T05:21:10;100206.09;;;11.73;83.35
6144;BME280;3103;49.492;8.474;2022-12-24T05:23:37;100215.06;;;11.57;84.13
6144;BME280;3103;49.492;8.474;2022-12-24T05:26:30;100207.19;;;11.77;83.89
6144;BME280;3103;49.492;8.474;2022-12-24T05:28:59;100204.91;;;11.64;83.79
6144;BME280;3103;49.492;8.474;2022-12-24T05:31:28;100194.09;;;11.37;85.66
6144;BME280;3103;49.492;8.474;2022-12-24T05:33:55;100196.66;;;11.49;85.48
6144;BME280;3103;49.492;8.474;2022-12-24T05:36:22;100190.97;;;11.45;85.93
6144;BME280;3103;49.492;8.474;2022-12-24T05:38:49;100205.34;;;11.34;86.69
6144;BME280;3103;49.492;8.474;2022-12-24T05:41:17;100211.44;;;11.46;86.27
6144;BME280;3103;49.492;8.474;2022-12-24T05:43:44;100221.69;;;11.49;85.73
6144;BME280;3103;49.492;8.474;2022-12-24T05:46:13;100231.69;;;11.54;85.06
6144;BME280;3103;49.492;8.474;2022-12-24T05:48:41;100227.13;;;11.54;85.80
6144;BME280;3103;49.492;8.474;2022-12-24T05:51:09;100230.38;;;11.56;85.11
6144;BME280;3103;49.492;8.474;2022-12-24T05:53:37;100243.50;;;11.53;84.30
6144;BME280;3103;49.492;8.474;2022-12-24T05:56:06;100246.00;;;11.38;84.81
6144;BME280;3103;49.492;8.474;2022-12-24T05:58:33;100246.44;;;11.29;85.53
6144;BME280;3103;49.492;8.474;2022-12-24T06:01:01;100249.81;;;11.20;86.49
6144;BME280;3103;49.492;8.474;2022-12-24T06:03:29;100245.69;;;11.34;86.84
6144;BME280;3103;49.492;8.474;2022-12-24T06:06:00;100243.88;;;11.18;87.36
6144;BME280;3103;49.492;8.474;2022-12-24T06:08:28;100249.69;;;11.53;86.36
6144;BME280;3103;49.492;8.474;2022-12-24T06:10:56;100240.00;;;11.30;87.19
6144;BME280;3103;49.492;8.474;2022-12-24T06:13:24;100239.16;;;11.08;88.31
6144;BME280;3103;49.492;8.474;2022-12-24T06:15:55;100245.25;;;11.20;88.53
6144;BME280;3103;49.492;8.474;2022-12-24T06:18:22;100253.25;;;11.37;88.28
6144;BME280;3103;49.492;8.474;2022-12-24T06:20:50;100247.44;;;11.23;88.51
6144;BME280;3103;49.492;8.474;2022-12-24T06:23:17;100246.16;;;11.09;89.09
6144;BME280;3103;49.492;8.474;2022-12-24T06:25:45;100257.22;;;11.29;88.82
6144;BME280;3103;49.492;8.474;2022-12-24T06:28:12;100253.38;;;11.25;88.08
6144;BME280;3103;49.492;8.474;2022-12-24T06:30:39;100247.06;;;11.15;89.02
6144;BME280;3103;49.492;8.474;2022-12-24T06:33:06;100259.91;;;11.29;87.30
6144;BME280;3103;49.492;8.474;2022-12-24T06:35:33;100260.53;;;11.37;86.86
6144;BME280;3103;49.492;8.474;2022-12-24T06:38:00;100257.72;;;11.26;87.94
6144;BME280;3103;49.492;8.474;2022-12-24T06:40:27;100264.72;;;11.27;88.60
6144;BME280;3103;49.492;8.474;2022-12-24T06:42:54;100269.78;;;11.46;87.09
6144;BME280;3103;49.492;8.474;2022-12-24T06:45:20;100274.50;;;11.77;84.89
6144;BME280;3103;49.492;8.474;2022-12-24T06:47:47;100276.63;;;11.75;83.41
6144;BME280;3103;49.492;8.474;2022-12-24T06:50:13;100282.00;;;11.75;83.58
6144;BME280;3103;49.492;8.474;2022-12-24T06:52:40;100284.91;;;11.69;83.37
6144;BME280;3103;49.492;8.474;2022-12-24T06:55:07;100274.56;;;11.60;84.42
6144;BME280;3103;49.492;8.474;2022-12-24T06:57:34;100286.44;;;11.43;85.88
6144;BME280;3103;49.492;8.474;2022-12-24T07:00:01;100298.38;;;11.52;84.44
6144;BME280;3103;49.492;8.474;2022-12-24T07:02:29;100291.88;;;11.48;84.87
6144;BME280;3103;49.492;8.474;2022-12-24T07:04:56;100304.78;;;11.46;84.87
6144;BME280;3103;49.492;8.474;2022-12-24T07:07:23;100303.19;;;11.50;84.99
6144;BME280;3103;49.492;8.474;2022-12-24T07:09:50;100310.66;;;11.43;85.00
6144;BME280;3103;49.492;8.474;2022-12-24T07:12:16;100318.16;;;11.41;85.56
6144;BME280;3103;49.492;8.474;2022-12-24T07:14:43;100316.13;;;11.31;85.51
6144;BME280;3103;49.492;8.474;2022-12-24T07:17:10;100315.63;;;11.34;85.36
6144;BME280;3103;49.492;8.474;2022-12-24T07:19:36;100307.00;;;11.32;84.50
6144;BME280;3103;49.492;8.474;2022-12-24T07:22:03;100303.31;;;11.38;84.15
6144;BME280;3103;49.492;8.474;2022-12-24T07:24:35;100310.91;;;11.41;83.38
6144;BME280;3103;49.492;8.474;2022-12-24T07:27:03;100318.16;;;11.41;83.72
6144;BME280;3103;49.492;8.474;2022-12-24T07:29:30;100306.19;;;11.32;83.93
6144;BME280;3103;49.492;8.474;2022-12-24T07:31:56;100314.56;;;11.35;84.07
6144;BME280;3103;49.492;8.474;2022-12-24T07:34:23;100314.59;;;11.18;85.14
6144;BME280;3103;49.492;8.474;2022-12-24T07:36:50;100316.75;;;11.38;83.98
6144;BME280;3103;49.492;8.474;2022-12-24T07:39:17;100317.00;;;11.37;84.39
6144;BME280;3103;49.492;8.474;2022-12-24T07:41:43;100326.38;;;11.34;85.15
6144;BME280;3103;49.492;8.474;2022-12-24T07:44:13;100324.69;;;11.11;85.75
6144;BME280;3103;49.492;8.474;2022-12-24T07:46:40;100324.94;;;11.26;85.77
6144;BME280;3103;49.492;8.474;2022-12-24T07:49:07;100322.66;;;11.18;85.95
6144;BME280;3103;49.492;8.474;2022-12-24T07:51:33;100322.81;;;10.95;87.20
6144;BME280;3103;49.492;8.474;2022-12-24T07:54:00;100334.25;;;11.02;87.02
6144;BME280;3103;49.492;8.474;2022-12-24T07:56:27;100341.44;;;11.52;83.56
6144;BME280;3103;49.492;8.474;2022-12-24T07:58:54;100344.47;;;11.55;83.30
6144;BME280;3103;49.492;8.474;2022-12-24T08:01:20;100358.28;;;11.64;82.07
6144;BME280;3103;49.492;8.474;2022-12-24T08:03:47;100351.91;;;11.32;83.64
6144;BME280;3103;49.492;8.474;2022-12-24T08:06:16;100357.41;;;11.58;83.06
6144;BME280;3103;49.492;8.474;2022-12-24T08:08:43;100358.22;;;11.59;82.81
6144;BME280;3103;49.492;8.474;2022-12-24T08:11:10;100372.72;;;11.75;81.36
6144;BME280;3103;49.492;8.474;2022-12-24T08:13:37;100376.16;;;11.70;81.47
6144;BME280;3103;49.492;8.474;2022-12-24T08:16:04;100371.75;;;11.64;81.55
6144;BME280;3103;49.492;8.474;2022-12-24T08:18:32;100376.25;;;11.58;82.25
6144;BME280;3103;49.492;8.474;2022-12-24T08:20:59;100371.44;;;11.60;82.46
6144;BME280;3103;49.492;8.474;2022-12-24T08:23:25;100367.19;;;11.65;82.39
6144;BME280;3103;49.492;8.474;2022-12-24T08:25:52;100373.38;;;11.65;82.49
6144;BME280;3103;49.492;8.474;2022-12-24T08:28:19;100374.16;;;11.44;83.08
6144;BME280;3103;49.492;8.474;2022-12-24T08:30:48;100365.84;;;11.67;82.04
6144;BME280;3103;49.492;8.474;2022-12-24T08:33:15;100356.16;;;11.66;82.21
6144;BME280;3103;49.492;8.474;2022-12-24T08:35:53;100363.25;;;11.72;81.63
6144;BME280;3103;49.492;8.474;2022-12-24T08:38:21;100364.72;;;11.63;81.85
6144;BME280;3103;49.492;8.474;2022-12-24T08:40:48;100365.41;;;11.53;82.37
6144;BME280;3103;49.492;8.474;2022-12-24T08:43:16;100361.16;;;11.57;82.59
6144;BME280;3103;49.492;8.474;2022-12-24T08:45:44;100354.63;;;11.53;82.48
6144;BME280;3103;49.492;8.474;2022-12-24T08:48:11;100356.75;;;11.51;82.70
6144;BME280;3103;49.492;8.474;2022-12-24T08:50:39;100351.53;;;11.62;82.23
6144;BME280;3103;49.492;8.474;2022-12-24T08:53:07;100362.53;;;11.60;82.22
6144;BME280;3103;49.492;8.474;2022-12-24T08:55:34;100367.75;;;11.67;81.78
6144;BME280;3103;49.492;8.474;2022-12-24T08:58:01;100372.66;;;11.53;82.30
6144;BME280;3103;49.492;8.474;2022-12-24T09:00:28;100371.91;;;11.74;82.14
6144;BME280;3103;49.492;8.474;2022-12-24T09:02:55;100378.66;;;11.77;81.82
6144;BME280;3103;49.492;8.474;2022-12-24T09:05:22;100389.50;;;11.82;80.38
6144;BME280;3103;49.492;8.474;2022-12-24T09:07:49;100394.38;;;12.02;79.84
6144;BME280;3103;49.492;8.474;2022-12-24T09:10:15;100396.41;;;11.95;79.55
6144;BME280;3103;49.492;8.474;2022-12-24T09:12:42;100399.69;;;11.97;79.48
6144;BME280;3103;49.492;8.474;2022-12-24T09:15:09;100401.44;;;12.08;79.10
6144;BME280;3103;49.492;8.474;2022-12-24T09:17:36;100409.03;;;12.11;78.93
6144;BME280;3103;49.492;8.474;2022-12-24T09:20:04;100413.16;;;12.18;79.09
6144;BME280;3103;49.492;8.474;2022-12-24T09:22:37;100415.03;;;12.18;79.07
6144;BME280;3103;49.492;8.474;2022-12-24T09:25:04;100424.78;;;12.24;78.94
6144;BME280;3103;49.492;8.474;2022-12-24T09:27:31;100423.16;;;12.23;78.94
6144;BME280;3103;49.492;8.474;2022-12-24T09:29:58;100429.63;;;12.22;79.45
6144;BME280;3103;49.492;8.474;2022-12-24T09:32:25;100436.97;;;12.27;79.16
6144;BME280;3103;49.492;8.474;2022-12-24T09:34:51;100451.38;;;12.37;78.63
6144;BME280;3103;49.492;8.474;2022-12-24T09:37:18;100453.00;;;12.38;78.82
6144;BME280;3103;49.492;8.474;2022-12-24T09:39:45;100452.00;;;12.44;78.68
6144;BME280;3103;49.492;8.474;2022-12-24T09:42:41;100465.28;;;12.29;79.29
6144;BME280;3103;49.492;8.474;2022-12-24T09:45:23;100459.25;;;12.22;80.13
6144;BME280;3103;49.492;8.474;2022-12-24T09:48:01;100466.47;;;12.38;79.67
6144;BME280;3103;49.492;8.474;2022-12-24T09:51:10;100470.47;;;12.36;79.67
6144;BME280;3103;49.492;8.474;2022-12-24T09:53:47;100481.81;;;12.38;79.69
6144;BME280;3103;49.492;8.474;2022-12-24T09:56:39;100469.72;;;12.18;80.15
6144;BME280;3103;49.492;8.474;2022-12-24T09:59:12;100480.94;;;12.32;80.40
6144;BME280;3103;49.492;8.474;2022-12-24T10:01:40;100480.78;;;12.39;80.07
6144;BME280;3103;49.492;8.474;2022-12-24T10:04:18;100471.56;;;12.57;79.07
6144;BME280;3103;49.492;8.474;2022-12-24T10:12:12;100477.88;;;12.67;77.78
6144;BME280;3103;49.492;8.474;2022-12-24T10:20:44;100490.16;;;12.58;77.18
6144;BME280;3103;49.492;8.474;2022-12-24T10:23:23;100492.22;;;12.51;77.49
6144;BME280;3103;49.492;8.474;2022-12-24T10:26:07;100492.44;;;12.44;78.11
6144;BME280;3103;49.492;8.474;2022-12-24T10:28:42;100490.16;;;12.58;77.08
6144;BME280;3103;49.492;8.474;2022-12-24T10:31:10;100492.59;;;12.60;77.47
6144;BME280;3103;49.492;8.474;2022-12-24T10:33:41;100491.94;;;12.69;75.25
6144;BME280;3103;49.492;8.474;2022-12-24T10:36:15;100490.31;;;12.68;74.99
6144;BME280;3103;49.492;8.474;2022-12-24T10:38:44;100494.13;;;12.72;74.08
6144;BME280;3103;49.492;8.474;2022-12-24T10:41:12;100493.16;;;12.62;74.26
6144;BME280;3103;49.492;8.474;2022-12-24T10:43:40;100500.06;;;12.53;74.10
6144;BME280;3103;49.492;8.474;2022-12-24T10:46:21;100496.69;;;12.62;74.45
6144;BME280;3103;49.492;8.474;2022-12-24T10:49:03;100505.41;;;12.69;73.79
6144;BME280;3103;49.492;8.474;2022-12-24T10:51:44;100488.91;;;12.66;73.53
6144;BME280;3103;49.492;8.474;2022-12-24T10:54:15;100493.56;;;12.70;73.04
6144;BME280;3103;49.492;8.474;2022-12-24T10:57:01;100490.31;;;12.68;72.92
6144;BME280;3103;49.492;8.474;2022-12-24T10:59:41;100498.63;;;12.67;72.27
6144;BME280;3103;49.492;8.474;2022-12-24T11:02:33;100494.63;;;12.69;72.61
6144;BME280;3103;49.492;8.474;2022-12-24T11:05:03;100489.34;;;12.58;72.33
6144;BME280;3103;49.492;8.474;2022-12-24T11:07:31;100489.78;;;12.71;72.51
6144;BME280;3103;49.492;8.474;2022-12-24T11:10:03;100484.75;;;12.80;72.15
6144;BME280;3103;49.492;8.474;2022-12-24T11:12:34;100478.63;;;12.85;72.12
6144;BME280;3103;49.492;8.474;2022-12-24T11:15:22;100473.47;;;12.83;71.68
6144;BME280;3103;49.492;8.474;2022-12-24T11:18:04;100482.56;;;12.77;72.02
6144;BME280;3103;49.492;8.474;2022-12-24T11:20:33;100476.22;;;12.88;72.25
6144;BME280;3103;49.492;8.474;2022-12-24T11:23:01;100468.75;;;12.95;71.98
6144;BME280;3103;49.492;8.474;2022-12-24T11:25:30;100478.72;;;12.95;71.38
6144;BME280;3103;49.492;8.474;2022-12-24T11:28:22;100479.34;;;12.80;71.58
6144;BME280;3103;49.492;8.474;2022-12-24T11:33:28;100475.84;;;12.79;72.79
6144;BME280;3103;49.492;8.474;2022-12-24T11:36:04;100479.88;;;12.77;73.34
6144;BME280;3103;49.492;8.474;2022-12-24T11:38:33;100482.56;;;12.77;74.29
6144;BME280;3103;49.492;8.474;2022-12-24T11:41:06;100481.50;;;12.78;74.65
6144;BME280;3103;49.492;8.474;2022-12-24T11:43:40;100479.69;;;12.84;74.93
6144;BME280;3103;49.492;8.474;2022-12-24T11:48:39;100468.59;;;12.58;76.82
6144;BME280;3103;49.492;8.474;2022-12-24T11:51:18;100476.50;;;12.65;77.36
6144;BME280;3103;49.492;8.474;2022-12-24T11:53:57;100472.97;;;12.64;77.01
6144;BME280;3103;49.492;8.474;2022-12-24T11:56:43;100466.03;;;12.68;76.96
6144;BME280;3103;49.492;8.474;2022-12-24T11:59:18;100461.16;;;12.92;76.54
6144;BME280;3103;49.492;8.474;2022-12-24T12:01:56;100466.09;;;13.00;75.81
6144;BME280;3103;49.492;8.474;2022-12-24T12:04:27;100463.06;;;13.19;74.90
6144;BME280;3103;49.492;8.474;2022-12-24T12:07:12;100467.03;;;13.11;73.95
6144;BME280;3103;49.492;8.474;2022-12-24T12:09:48;100465.03;;;13.01;74.49
6144;BME280;3103;49.492;8.474;2022-12-24T12:12:35;100457.97;;;12.95;74.92
6144;BME280;3103;49.492;8.474;2022-12-24T12:15:13;100459.91;;;13.00;75.45
6144;BME280;3103;49.492;8.474;2022-12-24T12:18:08;100462.84;;;12.98;75.82
6144;BME280;3103;49.492;8.474;2022-12-24T12:20:44;100463.78;;;13.09;76.00
6144;BME280;3103;49.492;8.474;2022-12-24T12:23:28;100470.22;;;13.08;74.97
6144;BME280;3103;49.492;8.474;2022-12-24T12:26:03;100474.84;;;13.13;73.91
6144;BME280;3103;49.492;8.474;2022-12-24T12:29:35;100466.31;;;13.21;73.39
6144;BME280;3103;49.492;8.474;2022-12-24T12:31:56;100477.00;;;13.11;74.08
6144;BME280;3103;49.492;8.474;2022-12-24T12:34:32;100479.09;;;13.30;73.86
6144;BME280;3103;49.492;8.474;2022-12-24T12:37:35;100476.16;;;13.37;73.90
6144;BME280;3103;49.492;8.474;2022-12-24T12:40:16;100478.53;;;13.28;73.42
6144;BME280;3103;49.492;8.474;2022-12-24T12:42:58;100470.78;;;13.37;73.34
6144;BME280;3103;49.492;8.474;2022-12-24T12:45:52;100485.53;;;13.24;74.17
6144;BME280;3103;49.492;8.474;2022-12-24T12:51:27;100491.75;;;13.03;74.81
6144;BME280;3103;49.492;8.474;2022-12-24T12:56:47;100491.19;;;13.01;74.77
6144;BME280;3103;49.492;8.474;2022-12-24T13:04:53;100484.97;;;13.00;76.24
6144;BME280;3103;49.492;8.474;2022-12-24T13:07:31;100488.78;;;13.04;76.31
6144;BME280;3103;49.492;8.474;2022-12-24T13:13:08;100492.91;;;12.85;77.10
6144;BME280;3103;49.492;8.474;2022-12-24T13:16:18;100496.13;;;12.82;77.58
6144;BME280;3103;49.492;8.474;2022-12-24T13:21:23;100495.47;;;12.75;78.40
6144;BME280;3103;49.492;8.474;2022-12-24T13:24:04;100498.44;;;12.73;78.98
6144;BME280;3103;49.492;8.474;2022-12-24T13:26:31;100488.47;;;12.74;78.74
6144;BME280;3103;49.492;8.474;2022-12-24T13:29:38;100491.72;;;12.76;79.12
6144;BME280;3103;49.492;8.474;2022-12-24T13:37:23;100500.00;;;12.47;80.66
6144;BME280;3103;49.492;8.474;2022-12-24T13:42:53;100510.41;;;12.61;80.75
6144;BME280;3103;49.492;8.474;2022-12-24T13:50:35;100505.56;;;12.63;81.34
6144;BME280;3103;49.492;8.474;2022-12-24T13:53:03;100501.75;;;12.59;81.68
6144;BME280;3103;49.492;8.474;2022-12-24T13:55:32;100504.69;;;12.35;82.84
6144;BME280;3103;49.492;8.474;2022-12-24T13:58:01;100499.25;;;12.52;81.86
6144;BME280;3103;49.492;8.474;2022-12-24T14:00:33;100503.50;;;12.48;82.36
6144;BME280;3103;49.492;8.474;2022-12-24T14:05:38;100523.50;;;12.52;82.47
6144;BME280;3103;49.492;8.474;2022-12-24T14:16:13;100511.28;;;12.44;83.94
6144;BME280;3103;49.492;8.474;2022-12-24T14:18:43;100512.41;;;12.48;83.66
6144;BME280;3103;49.492;8.474;2022-12-24T14:21:17;100523.13;;;12.43;83.79
6144;BME280;3103;49.492;8.474;2022-12-24T14:24:05;100506.41;;;12.41;84.78
6144;BME280;3103;49.492;8.474;2022-12-24T14:26:35;100505.50;;;12.36;85.52
6144;BME280;3103;49.492;8.474;2022-12-24T14:29:21;100503.28;;;12.11;87.10
6144;BME280;3103;49.492;8.474;2022-12-24T14:31:56;100499.44;;;12.07;87.81
6144;BME280;3103;49.492;8.474;2022-12-24T14:34:24;100498.22;;;12.36;86.43
6144;BME280;3103;49.492;8.474;2022-12-24T14:36:53;100490.41;;;12.35;85.54
6144;BME280;3103;49.492;8.474;2022-12-24T14:39:25;100500.44;;;12.39;85.99
6144;BME280;3103;49.492;8.474;2022-12-24T14:42:09;100496.66;;;12.18;87.29
6144;BME280;3103;49.492;8.474;2022-12-24T14:44:55;100508.00;;;12.21;86.73
6144;BME280;3103;49.492;8.474;2022-12-24T14:47:36;100517.03;;;12.31;86.15
6144;BME280;3103;49.492;8.474;2022-12-24T14:50:24;100522.22;;;12.38;85.48